createdAt,value
2018-07-10T00:04:11.548Z,48.75
2018-07-10T00:07:56.299Z,48.86
2018-07-10T00:11:31.533Z,48.74
2018-07-10T00:14:00.984Z,48.71
2018-07-10T00:16:30.384Z,48.75
2018-07-10T00:18:59.824Z,49.01
2018-07-10T00:21:29.240Z,49.15
2018-07-10T00:23:58.363Z,48.95
2018-07-10T00:26:27.764Z,49.07
2018-07-10T00:28:57.190Z,49.23
2018-07-10T00:31:26.619Z,49.26
2018-07-10T00:33:56.047Z,49.32
2018-07-10T00:36:25.392Z,49.34
2018-07-10T00:39:06.208Z,49.39
2018-07-10T00:41:37.675Z,49.32
2018-07-10T00:44:07.991Z,49.39
2018-07-10T00:46:38.734Z,49.33
2018-07-10T00:49:08.198Z,48.86
2018-07-10T00:51:40.483Z,48.86
2018-07-10T00:54:10.071Z,48.86
2018-07-10T00:56:39.749Z,49.05
2018-07-10T00:59:09.231Z,49.02
2018-07-10T01:01:38.636Z,49.39
2018-07-10T01:04:08.077Z,49.49
2018-07-10T01:06:37.489Z,49.40
2018-07-10T01:09:07.488Z,49.33
2018-07-10T01:11:36.908Z,49.71
2018-07-10T01:14:06.562Z,49.82
2018-07-10T01:16:37.960Z,50.06
2018-07-10T01:19:13.231Z,49.86
2018-07-10T01:21:43.836Z,49.78
2018-07-10T01:24:15.065Z,49.99
2018-07-10T01:26:44.425Z,50.17
2018-07-10T01:29:22.367Z,49.80
2018-07-10T01:31:54.104Z,49.50
2018-07-10T01:34:24.159Z,49.69
2018-07-10T01:36:54.664Z,49.56
2018-07-10T01:39:24.179Z,49.69
2018-07-10T01:41:53.593Z,49.75
2018-07-10T01:44:22.978Z,49.78
2018-07-10T01:46:52.384Z,49.92
2018-07-10T01:49:21.806Z,49.82
2018-07-10T01:51:51.318Z,49.84
2018-07-10T01:54:20.860Z,49.67
2018-07-10T01:56:50.357Z,49.91
2018-07-10T01:59:21.898Z,49.75
2018-07-10T02:01:51.477Z,49.74
2018-07-10T02:04:20.832Z,49.85
2018-07-10T02:06:50.295Z,50.12
2018-07-10T02:09:19.688Z,50.28
2018-07-10T02:11:49.142Z,50.23
2018-07-10T02:14:18.613Z,50.53
2018-07-10T02:16:48.094Z,50.22
2018-07-10T02:19:17.667Z,50.41
2018-07-10T02:21:47.160Z,50.30
2018-07-10T02:24:23.021Z,50.13
2018-07-10T02:26:53.212Z,50.30
2018-07-10T02:29:22.643Z,50.15
2018-07-10T02:31:52.071Z,50.16
2018-07-10T02:34:21.503Z,50.48
2018-07-10T02:36:50.860Z,50.73
2018-07-10T02:39:20.252Z,51.22
2018-07-10T02:41:49.855Z,51.34
2018-07-10T02:44:19.345Z,51.26
2018-07-10T02:46:48.756Z,51.39
2018-07-10T02:49:20.600Z,51.21
2018-07-10T02:51:55.069Z,50.98
2018-07-10T02:54:27.160Z,50.95
2018-07-10T02:56:58.294Z,51.05
2018-07-10T02:59:38.357Z,51.08
2018-07-10T03:02:16.662Z,51.02
2018-07-10T03:04:46.093Z,51.14
2018-07-10T03:07:17.597Z,50.96
2018-07-10T03:09:48.450Z,51.07
2018-07-10T03:12:18.812Z,51.10
2018-07-10T03:14:48.268Z,51.07
2018-07-10T03:17:21.063Z,50.90
2018-07-10T03:19:51.928Z,50.79
2018-07-10T03:22:21.633Z,50.66
2018-07-10T03:24:51.051Z,50.96
2018-07-10T03:27:20.439Z,51.00
2018-07-10T03:29:49.922Z,51.15
2018-07-10T03:32:19.995Z,51.28
2018-07-10T03:34:49.481Z,51.13
2018-07-10T03:37:18.904Z,50.68
2018-07-10T03:39:48.343Z,50.94
2018-07-10T03:42:19.482Z,50.65
2018-07-10T03:44:49.519Z,50.83
2018-07-10T03:47:19.168Z,50.72
2018-07-10T03:49:48.882Z,50.94
2018-07-10T03:52:34.402Z,51.13
2018-07-10T03:55:13.001Z,51.28
2018-07-10T03:57:42.492Z,51.48
2018-07-10T04:00:14.042Z,51.48
2018-07-10T04:02:46.794Z,51.43
2018-07-10T04:05:16.894Z,51.40
2018-07-10T04:07:47.129Z,51.15
2018-07-10T04:10:18.738Z,50.85
2018-07-10T04:12:50.508Z,50.61
2018-07-10T04:15:19.963Z,50.76
2018-07-10T04:18:09.259Z,50.76
2018-07-10T04:20:57.032Z,50.65
2018-07-10T04:23:33.492Z,50.62
2018-07-10T04:26:06.886Z,50.50
2018-07-10T04:28:36.785Z,50.94
2018-07-10T04:31:24.098Z,50.53
2018-07-10T04:33:53.572Z,50.22
2018-07-10T04:36:23.116Z,50.52
2018-07-10T04:38:57.771Z,50.10
2018-07-10T04:41:35.826Z,49.56
2018-07-10T04:44:11.529Z,49.17
2018-07-10T04:46:54.928Z,49.10
2018-07-10T04:49:33.233Z,49.02
2018-07-10T04:52:41.750Z,49.32
2018-07-10T04:55:14.068Z,49.86
2018-07-10T04:57:56.364Z,49.49
2018-07-10T05:00:27.732Z,49.41
2018-07-10T05:02:59.227Z,49.33
2018-07-10T05:05:30.889Z,49.35
2018-07-10T05:08:03.002Z,48.74
2018-07-10T05:10:34.150Z,47.91
2018-07-10T05:13:06.331Z,46.92
2018-07-10T05:15:36.776Z,45.91
2018-07-10T05:18:08.677Z,45.72
2018-07-10T05:20:39.467Z,45.62
2018-07-10T05:23:09.009Z,45.50
2018-07-10T05:25:41.171Z,44.95
2018-07-10T05:28:10.595Z,43.71
2018-07-10T05:30:42.881Z,42.29
2018-07-10T05:33:14.621Z,42.92
2018-07-10T05:35:44.961Z,44.30
2018-07-10T05:38:14.421Z,45.56
2018-07-10T05:40:43.885Z,45.85
2018-07-10T05:43:15.658Z,46.42
2018-07-10T05:45:45.249Z,46.05
2018-07-10T05:48:17.536Z,47.09
2018-07-10T05:50:47.049Z,47.13
2018-07-10T05:53:16.480Z,47.22
2018-07-10T05:55:46.962Z,37.27
2018-07-10T05:58:16.423Z,29.47
2018-07-10T06:00:45.930Z,26.08
2018-07-10T06:03:15.451Z,27.25
2018-07-10T06:05:44.988Z,24.65
2018-07-10T06:08:14.635Z,26.59
2018-07-10T06:10:44.053Z,28.58
2018-07-10T06:13:13.660Z,32.84
2018-07-10T06:15:43.094Z,29.02
2018-07-10T06:18:12.608Z,26.81
2018-07-10T06:20:42.364Z,25.36
2018-07-10T06:23:12.349Z,23.00
2018-07-10T06:25:41.560Z,23.54
2018-07-10T06:28:15.923Z,23.05
2018-07-10T06:30:45.523Z,27.68
2018-07-10T06:33:22.363Z,34.75
2018-07-10T06:36:07.349Z,37.00
2018-07-10T06:38:43.562Z,40.27
2018-07-10T06:41:13.401Z,43.57
2018-07-10T06:43:57.106Z,45.75
2018-07-10T06:46:44.476Z,45.13
2018-07-10T06:49:29.349Z,44.51
2018-07-10T06:52:09.574Z,44.07
2018-07-10T06:54:52.937Z,43.03
2018-07-10T06:57:32.161Z,36.85
2018-07-10T07:00:04.045Z,37.09
2018-07-10T07:02:34.678Z,37.20
2018-07-10T07:05:04.219Z,37.72
2018-07-10T07:07:34.980Z,38.46
2018-07-10T07:10:09.985Z,37.10
2018-07-10T07:12:40.272Z,36.21
2018-07-10T07:15:12.058Z,35.54
2018-07-10T07:17:44.916Z,36.16
2018-07-10T07:20:14.330Z,36.54
2018-07-10T07:22:43.753Z,37.19
2018-07-10T07:25:13.257Z,37.70
2018-07-10T07:27:42.691Z,38.91
2018-07-10T07:30:12.146Z,37.69
2018-07-10T07:32:41.573Z,36.46
2018-07-10T07:35:11.175Z,35.85
2018-07-10T07:37:41.997Z,35.29
2018-07-10T07:40:12.242Z,36.00
2018-07-10T07:42:42.048Z,38.63
2018-07-10T07:45:11.545Z,39.21
2018-07-10T07:47:41.802Z,38.66
2018-07-10T07:50:10.920Z,38.76
2018-07-10T07:52:40.338Z,39.43
2018-07-10T07:55:09.823Z,38.17
2018-07-10T07:57:39.382Z,37.37
2018-07-10T08:00:08.873Z,36.98
2018-07-10T08:02:38.277Z,35.83
2018-07-10T08:05:07.712Z,35.58
2018-07-10T08:07:37.243Z,34.50
2018-07-10T08:10:06.693Z,34.18
2018-07-10T08:12:36.146Z,33.26
2018-07-10T08:15:05.625Z,34.96
2018-07-10T08:17:37.034Z,34.56
2018-07-10T08:20:07.420Z,36.33
2018-07-10T08:22:37.251Z,36.44
2018-07-10T08:25:07.492Z,36.76
2018-07-10T08:27:38.619Z,36.87
2018-07-10T08:30:08.601Z,37.28
2018-07-10T08:32:38.773Z,37.82
2018-07-10T08:35:08.264Z,38.16
2018-07-10T08:37:37.681Z,37.82
2018-07-10T08:40:07.212Z,37.58
2018-07-10T08:42:36.719Z,38.04
2018-07-10T08:45:06.549Z,36.92
2018-07-10T08:47:36.216Z,36.16
2018-07-10T08:50:05.681Z,31.70
2018-07-10T08:52:35.891Z,28.45
2018-07-10T08:55:05.550Z,25.18
2018-07-10T08:57:35.052Z,22.23
2018-07-10T09:00:04.620Z,24.03
2018-07-10T09:02:34.255Z,27.54
2018-07-10T09:05:03.724Z,28.34
2018-07-10T09:07:33.279Z,26.01
2018-07-10T09:10:02.725Z,25.29
2018-07-10T09:12:32.612Z,27.80
2018-07-10T09:15:02.406Z,28.51
2018-07-10T09:17:31.901Z,29.64
2018-07-10T09:20:04.153Z,30.37
2018-07-10T09:22:33.684Z,30.33
2018-07-10T09:25:04.979Z,30.43
2018-07-10T09:27:34.576Z,30.18
2018-07-10T09:30:04.148Z,29.42
2018-07-10T09:32:38.991Z,29.08
2018-07-10T09:35:08.557Z,27.68
2018-07-10T09:37:43.306Z,28.45
2018-07-10T09:40:15.684Z,26.78
2018-07-10T09:42:49.891Z,26.86
2018-07-10T09:45:19.383Z,28.16
2018-07-10T09:47:48.838Z,29.17
2018-07-10T09:50:18.264Z,29.53
2018-07-10T09:52:47.633Z,29.78
2018-07-10T09:55:17.068Z,29.62
2018-07-10T09:57:46.512Z,28.50
2018-07-10T10:00:15.950Z,27.39
2018-07-10T10:02:45.377Z,27.91
2018-07-10T10:05:14.834Z,27.43
2018-07-10T10:07:44.441Z,27.33
2018-07-10T10:10:13.882Z,27.67
2018-07-10T10:12:43.428Z,26.39
2018-07-10T10:15:12.892Z,24.94
2018-07-10T10:17:42.271Z,24.84
2018-07-10T10:20:11.746Z,25.24
2018-07-10T10:22:41.736Z,25.75
2018-07-10T10:25:12.342Z,26.22
2018-07-10T10:27:42.988Z,25.91
2018-07-10T10:30:12.488Z,25.44
2018-07-10T10:32:41.899Z,26.58
2018-07-10T10:35:11.039Z,26.89
2018-07-10T10:37:41.328Z,26.88
2018-07-10T10:40:10.756Z,27.00
2018-07-10T10:42:40.269Z,26.53
2018-07-10T10:45:10.402Z,26.68
2018-07-10T10:47:39.909Z,26.47
2018-07-10T10:50:09.324Z,28.62
2018-07-10T10:52:38.783Z,28.88
2018-07-10T10:55:08.203Z,28.78
2018-07-10T10:57:39.864Z,28.62
2018-07-10T11:00:09.239Z,29.00
2018-07-10T11:02:38.649Z,29.72
2018-07-10T11:05:08.118Z,30.38
2018-07-10T11:07:38.506Z,30.92
2018-07-10T11:10:08.251Z,30.34
2018-07-10T11:12:37.647Z,30.81
2018-07-10T11:15:07.248Z,31.11
2018-07-10T11:17:54.360Z,32.28
2018-07-10T11:20:45.624Z,31.53
2018-07-10T11:23:28.950Z,31.83
2018-07-10T11:26:08.351Z,31.09
2018-07-10T11:28:37.807Z,30.49
2018-07-10T11:31:07.193Z,31.77
2018-07-10T11:33:36.670Z,30.37
2018-07-10T11:36:06.097Z,30.57
2018-07-10T11:38:35.588Z,30.15
2018-07-10T11:41:05.085Z,30.41
2018-07-10T11:43:34.611Z,30.67
2018-07-10T11:46:04.045Z,30.51
2018-07-10T11:48:33.458Z,30.72
2018-07-10T11:51:02.895Z,30.18
2018-07-10T11:53:32.287Z,30.55
2018-07-10T11:56:01.791Z,30.15
2018-07-10T11:58:31.318Z,30.87
2018-07-10T12:01:00.829Z,31.05
2018-07-10T12:03:40.309Z,31.50
2018-07-10T12:06:10.729Z,31.45
2018-07-10T12:08:40.457Z,31.00
2018-07-10T12:11:17.231Z,30.62
2018-07-10T12:13:46.757Z,30.17
2018-07-10T12:16:16.253Z,30.78
2018-07-10T12:18:45.683Z,30.91
2018-07-10T12:21:17.575Z,30.45
2018-07-10T12:23:47.124Z,30.24
2018-07-10T12:26:16.708Z,29.88
2018-07-10T12:28:46.282Z,29.89
2018-07-10T12:31:16.192Z,29.64
2018-07-10T12:33:45.702Z,29.33
2018-07-10T12:36:15.158Z,28.77
2018-07-10T12:38:44.685Z,28.84
2018-07-10T12:41:14.081Z,29.56
2018-07-10T12:43:43.489Z,29.22
2018-07-10T12:46:13.371Z,29.50
2018-07-10T12:48:42.792Z,29.62
2018-07-10T12:51:12.248Z,29.22
2018-07-10T12:53:41.666Z,29.31
2018-07-10T12:56:11.276Z,29.64
2018-07-10T12:58:43.320Z,29.84
2018-07-10T13:01:12.969Z,30.47
2018-07-10T13:03:42.725Z,30.16
2018-07-10T13:06:12.216Z,29.94
2018-07-10T13:08:41.670Z,30.62
2018-07-10T13:11:11.177Z,30.63
2018-07-10T13:13:40.708Z,30.93
2018-07-10T13:16:10.128Z,30.87
2018-07-10T13:18:40.568Z,30.89
2018-07-10T13:21:09.759Z,31.53
2018-07-10T13:23:39.222Z,31.31
2018-07-10T13:26:08.625Z,31.80
2018-07-10T13:28:38.304Z,32.41
2018-07-10T13:31:07.793Z,32.43
2018-07-10T13:33:37.163Z,32.65
2018-07-10T13:36:06.619Z,33.15
2018-07-10T13:38:36.136Z,33.65
2018-07-10T13:41:05.596Z,33.70
2018-07-10T13:43:34.943Z,33.03
2018-07-10T13:46:04.434Z,33.78
2018-07-10T13:48:33.858Z,34.06
2018-07-10T13:51:03.280Z,34.27
2018-07-10T13:53:32.722Z,33.94
2018-07-10T13:56:02.486Z,34.19
2018-07-10T13:58:33.498Z,34.38
2018-07-10T14:01:10.544Z,34.51
2018-07-10T14:03:39.992Z,34.42
2018-07-10T14:06:09.453Z,34.14
2018-07-10T14:08:38.977Z,35.10
2018-07-10T14:11:08.412Z,34.36
2018-07-10T14:13:38.176Z,34.63
2018-07-10T14:16:07.669Z,34.54
2018-07-10T14:18:37.091Z,34.60
2018-07-10T14:21:09.408Z,34.52
2018-07-10T14:23:38.936Z,33.97
2018-07-10T14:26:08.422Z,34.67
2018-07-10T14:28:38.123Z,33.97
2018-07-10T14:31:07.571Z,34.41
2018-07-10T14:33:37.054Z,34.40
2018-07-10T14:36:06.585Z,33.75
2018-07-10T14:38:36.163Z,33.63
2018-07-10T14:41:08.544Z,33.92
2018-07-10T14:43:42.962Z,34.17
2018-07-10T14:46:22.429Z,33.59
2018-07-10T14:49:02.435Z,33.97
2018-07-10T14:51:39.532Z,33.54
2018-07-10T14:54:09.329Z,33.44
2018-07-10T14:56:39.184Z,33.68
2018-07-10T14:59:08.991Z,33.62
2018-07-10T15:01:39.467Z,33.58
2018-07-10T15:04:09.245Z,33.46
2018-07-10T15:06:38.904Z,33.67
2018-07-10T15:09:09.740Z,33.24
2018-07-10T15:11:39.977Z,33.13
2018-07-10T15:14:10.578Z,33.57
2018-07-10T15:16:45.037Z,33.66
2018-07-10T15:19:15.507Z,33.45
2018-07-10T15:21:44.780Z,33.38
2018-07-10T15:24:14.170Z,33.00
2018-07-10T15:26:43.605Z,33.11
2018-07-10T15:29:17.387Z,33.82
2018-07-10T15:31:46.966Z,33.95
2018-07-10T15:34:16.375Z,33.77
2018-07-10T15:36:45.834Z,34.25
2018-07-10T15:39:15.219Z,33.82
2018-07-10T15:41:44.416Z,33.59
2018-07-10T15:44:14.011Z,33.34
2018-07-10T15:46:43.446Z,33.77
2018-07-10T15:49:12.876Z,32.98
2018-07-10T15:51:42.298Z,33.37
2018-07-10T15:54:11.769Z,33.06
2018-07-10T15:56:41.175Z,32.83
2018-07-10T15:59:10.770Z,32.80
2018-07-10T16:01:40.252Z,32.65
2018-07-10T16:04:09.427Z,33.15
2018-07-10T16:06:39.017Z,33.58
2018-07-10T16:09:23.140Z,33.80
2018-07-10T16:11:59.002Z,33.79
2018-07-10T16:14:29.554Z,33.69
2018-07-10T16:16:59.225Z,33.26
2018-07-10T16:19:48.326Z,33.48
2018-07-10T16:22:24.982Z,33.79
2018-07-10T16:25:01.127Z,34.21
2018-07-10T16:27:42.040Z,34.05
2018-07-10T16:30:15.025Z,33.94
2018-07-10T16:32:44.493Z,34.92
2018-07-10T16:35:13.913Z,34.87
2018-07-10T16:37:43.393Z,34.91
2018-07-10T16:40:13.167Z,35.11
2018-07-10T16:42:48.476Z,35.50
2018-07-10T16:45:31.275Z,35.51
2018-07-10T16:48:16.846Z,35.58
2018-07-10T16:51:59.063Z,35.74
2018-07-10T16:54:28.515Z,36.49
2018-07-10T16:56:57.896Z,36.49
2018-07-10T16:59:28.498Z,36.79
2018-07-10T17:01:57.936Z,37.21
2018-07-10T17:04:27.606Z,37.13
2018-07-10T17:06:57.117Z,37.42
2018-07-10T17:09:26.695Z,37.34
2018-07-10T17:11:56.470Z,37.58
2018-07-10T17:14:25.896Z,37.11
2018-07-10T17:16:55.391Z,37.77
2018-07-10T17:19:24.872Z,37.87
2018-07-10T17:21:56.900Z,37.14
2018-07-10T17:24:26.329Z,37.74
2018-07-10T17:26:55.800Z,37.38
2018-07-10T17:29:25.235Z,37.92
2018-07-10T17:31:54.625Z,38.00
2018-07-10T17:34:24.008Z,38.13
2018-07-10T17:36:53.405Z,38.19
2018-07-10T17:39:22.942Z,38.01
2018-07-10T17:41:52.445Z,38.31
2018-07-10T17:44:21.985Z,38.57
2018-07-10T17:46:51.411Z,38.44
2018-07-10T17:49:20.842Z,38.95
2018-07-10T17:51:50.266Z,39.13
2018-07-10T17:54:19.735Z,39.02
2018-07-10T17:56:49.262Z,39.17
2018-07-10T17:59:18.728Z,39.70
2018-07-10T18:01:48.161Z,39.63
2018-07-10T18:04:17.704Z,39.61
2018-07-10T18:06:47.101Z,39.90
2018-07-10T18:09:17.037Z,39.24
2018-07-10T18:11:46.452Z,39.69
2018-07-10T18:14:15.790Z,39.74
2018-07-10T18:16:45.332Z,39.88
2018-07-10T18:19:15.331Z,39.23
2018-07-10T18:21:44.776Z,38.86
2018-07-10T18:24:14.015Z,38.55
2018-07-10T18:26:43.454Z,38.71
2018-07-10T18:29:12.879Z,38.69
2018-07-10T18:31:42.306Z,39.04
2018-07-10T18:34:11.716Z,38.75
2018-07-10T18:36:41.114Z,38.85
2018-07-10T18:39:10.478Z,39.43
2018-07-10T18:41:40.159Z,39.13
2018-07-10T18:44:09.573Z,40.22
2018-07-10T18:46:39.059Z,40.51
2018-07-10T18:49:08.481Z,40.78
2018-07-10T18:51:38.389Z,41.11
2018-07-10T18:54:07.920Z,40.69
2018-07-10T18:56:37.407Z,40.94
2018-07-10T18:59:11.916Z,40.81
2018-07-10T19:02:40.470Z,41.27
2018-07-10T19:05:09.893Z,40.91
2018-07-10T19:07:41.361Z,41.06
2018-07-10T19:10:11.038Z,41.36
2018-07-10T19:12:41.945Z,41.42
2018-07-10T19:15:11.775Z,42.44
2018-07-10T19:17:41.574Z,42.43
2018-07-10T19:20:12.085Z,43.01
2018-07-10T19:22:57.636Z,43.55
2018-07-10T19:25:27.038Z,43.76
2018-07-10T19:27:59.352Z,44.20
2018-07-10T19:30:40.119Z,44.28
2018-07-10T19:33:09.664Z,44.31
2018-07-10T19:35:39.076Z,44.36
2018-07-10T19:38:08.499Z,44.95
2018-07-10T19:40:37.957Z,45.44
2018-07-10T19:43:07.550Z,45.53
2018-07-10T19:45:37.005Z,46.04
2018-07-10T19:48:06.942Z,46.26
2018-07-10T19:50:41.177Z,46.25
2018-07-10T19:53:11.373Z,45.95
2018-07-10T19:55:42.928Z,46.17
2018-07-10T19:58:34.850Z,46.25
2018-07-10T20:02:13.943Z,46.36
2018-07-10T20:04:59.825Z,46.66
2018-07-10T20:08:02.257Z,46.93
2018-07-10T20:10:41.529Z,46.87
2018-07-10T20:13:17.413Z,47.09
2018-07-10T20:16:08.184Z,47.11
2018-07-10T20:19:20.112Z,47.35
2018-07-10T20:22:03.254Z,47.60
2018-07-10T20:24:33.553Z,47.62
2018-07-10T20:27:16.838Z,47.98
2018-07-10T20:31:09.558Z,47.82
2018-07-10T20:33:59.438Z,47.79
2018-07-10T20:36:28.949Z,48.45
2018-07-10T20:38:59.007Z,47.98
2018-07-10T20:41:46.855Z,47.39
2018-07-10T20:44:20.614Z,47.82
2018-07-10T20:47:01.479Z,47.92
2018-07-10T20:49:45.594Z,48.04
2018-07-10T20:52:18.913Z,48.27
2018-07-10T20:54:54.612Z,48.37
2018-07-10T20:57:28.754Z,48.56
2018-07-10T21:00:09.050Z,48.37
2018-07-10T21:02:53.348Z,48.73
2018-07-10T21:05:38.931Z,48.84
2018-07-10T21:08:20.231Z,48.83
2018-07-10T21:10:53.006Z,49.04
2018-07-10T21:13:53.883Z,48.79
2018-07-10T21:17:11.567Z,49.10
2018-07-10T21:19:56.250Z,49.38
2018-07-10T21:24:46.533Z,49.26
2018-07-10T21:28:56.281Z,49.17
2018-07-10T21:31:34.116Z,49.18
2018-07-10T21:34:12.519Z,48.96
2018-07-10T21:36:58.742Z,49.20
2018-07-10T21:39:45.509Z,49.02
2018-07-10T21:43:40.844Z,49.71
2018-07-10T21:46:20.843Z,49.46
2018-07-10T21:49:03.673Z,49.21
2018-07-10T21:51:33.217Z,49.12
2018-07-10T21:54:02.712Z,49.10
2018-07-10T21:56:32.192Z,49.45
2018-07-10T21:59:01.567Z,49.31
2018-07-10T22:01:50.488Z,49.01
2018-07-10T22:04:21.271Z,49.45
2018-07-10T22:06:52.505Z,50.94
2018-07-10T22:09:24.262Z,51.20
2018-07-10T22:11:54.295Z,51.14
2018-07-10T22:14:24.337Z,51.04
2018-07-10T22:16:53.751Z,50.87
2018-07-10T22:19:25.611Z,51.04
2018-07-10T22:21:56.158Z,51.42
2018-07-10T22:24:27.101Z,51.30
2018-07-10T22:26:57.919Z,51.37
2018-07-10T22:29:32.800Z,51.05
2018-07-10T22:32:06.353Z,50.87
2018-07-10T22:34:35.916Z,51.22
2018-07-10T22:37:05.350Z,51.42
2018-07-10T22:39:34.794Z,51.37
2018-07-10T22:42:04.266Z,51.71
2018-07-10T22:44:37.823Z,52.16
2018-07-10T22:47:07.461Z,52.24
2018-07-10T22:49:36.956Z,52.50
2018-07-10T22:52:06.356Z,53.01
2018-07-10T22:54:38.491Z,52.71
2018-07-10T22:57:12.352Z,52.97
2018-07-10T22:59:43.379Z,53.03
2018-07-10T23:02:12.778Z,53.50
2018-07-10T23:04:42.224Z,53.57
2018-07-10T23:07:11.721Z,53.43
2018-07-10T23:09:41.280Z,53.94
2018-07-10T23:12:10.754Z,53.94
2018-07-10T23:14:40.130Z,54.26
2018-07-10T23:17:09.580Z,54.10
2018-07-10T23:19:39.095Z,54.02
2018-07-10T23:22:08.515Z,54.06
2018-07-10T23:24:37.961Z,54.06
2018-07-10T23:27:07.502Z,54.38
2018-07-10T23:29:39.837Z,54.63
2018-07-10T23:32:09.404Z,54.83
2018-07-10T23:34:38.837Z,54.94
2018-07-10T23:37:13.103Z,54.78
2018-07-10T23:39:50.264Z,55.29
2018-07-10T23:42:32.329Z,55.61
2018-07-10T23:45:05.838Z,56.01
2018-07-10T23:47:36.731Z,56.41
2018-07-10T23:50:17.887Z,56.64
2018-07-10T23:53:53.820Z,56.72
2018-07-10T23:56:23.710Z,56.18
2018-07-10T23:58:53.236Z,55.83
